ITY1263 LIRF-LIRN
Flight info
| Callsign | ITY1263 |
|---|---|
| Flight time | 0h 38m |
| Altitude | 23000 |
| Route | RIFFI DCT PNZ |
| Aircraft | A320/M-SDE3FGHIRWY/LB1 |
Departure
| Time | 2026-05-05 10:58 |
|---|---|
| Airport | Rome–Fiumicino Leonardo da Vinci International Airport (LIRF) |
Arrival
| Time | 2026-05-05 11:36 |
|---|---|
| Airport | Naples International Airport (LIRN) |
| Time | Latitude | Longitude | Altitude | Speed | Heading |
|---|---|---|---|---|---|
| 2026-05-05 10:33 | 41.79763 | 12.25664 | 14 ft | 0 kts | 296° |
| 2026-05-05 10:47 | 41.79763 | 12.25667 | 15 ft | 2 kts | 295° |
| 2026-05-05 10:47 | 41.79757 | 12.25683 | 16 ft | 2 kts | 295° |
| 2026-05-05 10:48 | 41.79751 | 12.25700 | 16 ft | 2 kts | 296° |
| 2026-05-05 10:48 | 41.79746 | 12.25714 | 17 ft | 1 kts | 306° |
| 2026-05-05 10:48 | 41.79743 | 12.25721 | 16 ft | 1 kts | 330° |
| 2026-05-05 10:48 | 41.79738 | 12.25725 | 16 ft | 1 kts | 13° |
| 2026-05-05 10:49 | 41.79732 | 12.25724 | 16 ft | 1 kts | 22° |
| 2026-05-05 10:49 | 41.79727 | 12.25721 | 16 ft | 1 kts | 24° |
| 2026-05-05 10:49 | 41.79726 | 12.25720 | 17 ft | 0 kts | 26° |
| 2026-05-05 10:52 | 41.79785 | 12.25758 | 16 ft | 24 kts | 25° |
| 2026-05-05 10:52 | 41.79870 | 12.25820 | 16 ft | 13 kts | 30° |
| 2026-05-05 10:52 | 41.79946 | 12.25866 | 16 ft | 11 kts | 25° |
| 2026-05-05 10:53 | 41.80014 | 12.25909 | 14 ft | 10 kts | 24° |
| 2026-05-05 10:53 | 41.80078 | 12.25949 | 16 ft | 11 kts | 26° |
| 2026-05-05 10:53 | 41.80152 | 12.25997 | 14 ft | 13 kts | 25° |
| 2026-05-05 10:53 | 41.80248 | 12.26055 | 14 ft | 20 kts | 25° |
| 2026-05-05 10:54 | 41.80411 | 12.26154 | 16 ft | 27 kts | 24° |
| 2026-05-05 10:54 | 41.80518 | 12.26214 | 16 ft | 14 kts | 57° |
| 2026-05-05 10:54 | 41.80554 | 12.26329 | 16 ft | 14 kts | 70° |
| 2026-05-05 10:54 | 41.80593 | 12.26472 | 18 ft | 19 kts | 70° |
| 2026-05-05 10:55 | 41.80642 | 12.26653 | 15 ft | 22 kts | 70° |
| 2026-05-05 10:55 | 41.80700 | 12.26860 | 14 ft | 20 kts | 70° |
| 2026-05-05 10:55 | 41.80753 | 12.27022 | 13 ft | 16 kts | 46° |
| 2026-05-05 10:55 | 41.80835 | 12.27028 | 15 ft | 4 kts | 340° |
| 2026-05-05 10:56 | 41.80877 | 12.27007 | 13 ft | 9 kts | 340° |
| 2026-05-05 10:56 | 41.80916 | 12.26988 | 13 ft | 6 kts | 340° |
| 2026-05-05 10:56 | 41.80957 | 12.26940 | 12 ft | 10 kts | 282° |
| 2026-05-05 10:56 | 41.80950 | 12.26901 | 13 ft | 0 kts | 249° |
| 2026-05-05 10:57 | 41.80929 | 12.26824 | 13 ft | 41 kts | 249° |
| 2026-05-05 10:57 | 41.80739 | 12.26137 | 20 ft | 111 kts | 250° |
| 2026-05-05 10:57 | 41.80405 | 12.24938 | 17 ft | 162 kts | 249° |
| 2026-05-05 10:57 | 41.80002 | 12.23466 | 480 ft | 167 kts | 251° |
| 2026-05-05 10:58 | 41.79596 | 12.22006 | 1086 ft | 168 kts | 251° |
| 2026-05-05 10:58 | 41.79022 | 12.20617 | 1573 ft | 176 kts | 222° |
| 2026-05-05 10:58 | 41.78055 | 12.19516 | 1969 ft | 190 kts | 215° |
| 2026-05-05 10:58 | 41.77020 | 12.18398 | 2699 ft | 190 kts | 217° |
| 2026-05-05 10:59 | 41.75965 | 12.17328 | 3492 ft | 190 kts | 208° |
| 2026-05-05 10:59 | 41.74698 | 12.16800 | 4185 ft | 201 kts | 188° |
| 2026-05-05 10:59 | 41.73211 | 12.16827 | 4549 ft | 226 kts | 182° |
| 2026-05-05 10:59 | 41.71558 | 12.16911 | 4967 ft | 248 kts | 181° |
| 2026-05-05 11:00 | 41.69784 | 12.17001 | 5619 ft | 260 kts | 181° |
| 2026-05-05 11:00 | 41.67945 | 12.17093 | 6372 ft | 268 kts | 182° |
| 2026-05-05 11:00 | 41.66059 | 12.17191 | 7219 ft | 273 kts | 182° |
| 2026-05-05 11:00 | 41.64146 | 12.17289 | 8108 ft | 276 kts | 182° |
| 2026-05-05 11:01 | 41.62214 | 12.17385 | 8979 ft | 279 kts | 182° |
| 2026-05-05 11:01 | 41.60259 | 12.17480 | 9836 ft | 283 kts | 182° |
| 2026-05-05 11:01 | 41.58272 | 12.17573 | 10470 ft | 293 kts | 182° |
| 2026-05-05 11:01 | 41.56152 | 12.17638 | 10724 ft | 315 kts | 186° |
| 2026-05-05 11:02 | 41.53916 | 12.17229 | 10971 ft | 336 kts | 193° |
| 2026-05-05 11:02 | 41.51523 | 12.16912 | 11401 ft | 355 kts | 180° |
| 2026-05-05 11:02 | 41.49082 | 12.17659 | 12088 ft | 368 kts | 160° |
| 2026-05-05 11:02 | 41.46908 | 12.19543 | 12762 ft | 380 kts | 140° |
| 2026-05-05 11:03 | 41.45037 | 12.22068 | 13452 ft | 385 kts | 137° |
| 2026-05-05 11:03 | 41.43172 | 12.24658 | 14104 ft | 389 kts | 137° |
| 2026-05-05 11:03 | 41.41297 | 12.27276 | 14689 ft | 393 kts | 137° |
| 2026-05-05 11:03 | 41.39402 | 12.29918 | 15274 ft | 396 kts | 137° |
| 2026-05-05 11:04 | 41.37481 | 12.32582 | 15871 ft | 401 kts | 137° |
| 2026-05-05 11:04 | 41.35535 | 12.35269 | 16567 ft | 405 kts | 137° |
| 2026-05-05 11:04 | 41.33566 | 12.37978 | 17246 ft | 409 kts | 137° |
| 2026-05-05 11:04 | 41.31575 | 12.40711 | 17898 ft | 413 kts | 137° |
| 2026-05-05 11:05 | 41.29557 | 12.43476 | 18485 ft | 418 kts | 137° |
| 2026-05-05 11:05 | 41.27549 | 12.46222 | 18958 ft | 422 kts | 137° |
| 2026-05-05 11:05 | 41.25490 | 12.49034 | 19464 ft | 425 kts | 137° |
| 2026-05-05 11:05 | 41.23421 | 12.51863 | 19934 ft | 429 kts | 137° |
| 2026-05-05 11:06 | 41.21340 | 12.54712 | 20418 ft | 432 kts | 137° |
| 2026-05-05 11:06 | 41.19246 | 12.57585 | 20888 ft | 435 kts | 138° |
| 2026-05-05 11:06 | 41.17130 | 12.60484 | 21355 ft | 438 kts | 138° |
| 2026-05-05 11:06 | 41.14991 | 12.63406 | 21803 ft | 441 kts | 138° |
| 2026-05-05 11:07 | 41.12846 | 12.66327 | 22239 ft | 444 kts | 138° |
| 2026-05-05 11:07 | 41.10682 | 12.69270 | 22690 ft | 447 kts | 138° |
| 2026-05-05 11:07 | 41.08506 | 12.72225 | 23026 ft | 449 kts | 139° |
| 2026-05-05 11:07 | 41.06310 | 12.75208 | 23078 ft | 456 kts | 139° |
| 2026-05-05 11:08 | 41.04067 | 12.78254 | 23108 ft | 468 kts | 139° |
| 2026-05-05 11:08 | 41.01769 | 12.81370 | 23110 ft | 477 kts | 139° |
| 2026-05-05 11:08 | 40.99437 | 12.84531 | 23109 ft | 480 kts | 139° |
| 2026-05-05 11:08 | 40.97100 | 12.87701 | 23109 ft | 481 kts | 139° |
| 2026-05-05 11:09 | 40.94766 | 12.90880 | 23105 ft | 482 kts | 138° |
| 2026-05-05 11:09 | 40.92655 | 12.94363 | 23106 ft | 488 kts | 128° |
| 2026-05-05 11:09 | 40.90959 | 12.98275 | 23107 ft | 494 kts | 118° |
| 2026-05-05 11:09 | 40.89727 | 13.02532 | 23110 ft | 498 kts | 109° |
| 2026-05-05 11:10 | 40.88787 | 13.06937 | 23117 ft | 498 kts | 108° |
| 2026-05-05 11:10 | 40.87845 | 13.11343 | 23117 ft | 498 kts | 108° |
| 2026-05-05 11:10 | 40.86910 | 13.15698 | 23110 ft | 499 kts | 108° |
| 2026-05-05 11:10 | 40.85960 | 13.20110 | 23100 ft | 500 kts | 108° |
| 2026-05-05 11:11 | 40.85005 | 13.24529 | 23097 ft | 500 kts | 108° |
| 2026-05-05 11:11 | 40.84049 | 13.28950 | 23098 ft | 501 kts | 108° |
| 2026-05-05 11:11 | 40.83092 | 13.33372 | 23082 ft | 502 kts | 108° |
| 2026-05-05 11:11 | 40.82127 | 13.37810 | 22817 ft | 501 kts | 108° |
| 2026-05-05 11:12 | 40.81167 | 13.42217 | 22464 ft | 496 kts | 108° |
| 2026-05-05 11:12 | 40.80215 | 13.46581 | 21552 ft | 494 kts | 108° |
| 2026-05-05 11:12 | 40.79266 | 13.50918 | 20775 ft | 489 kts | 108° |
| 2026-05-05 11:12 | 40.78326 | 13.55201 | 20134 ft | 482 kts | 108° |
| 2026-05-05 11:13 | 40.77409 | 13.59367 | 19992 ft | 464 kts | 108° |
| 2026-05-05 11:13 | 40.76526 | 13.63369 | 19868 ft | 447 kts | 108° |
| 2026-05-05 11:13 | 40.75862 | 13.67302 | 19750 ft | 434 kts | 97° |
| 2026-05-05 11:13 | 40.75815 | 13.71181 | 19630 ft | 421 kts | 84° |
| 2026-05-05 11:14 | 40.76365 | 13.74953 | 19512 ft | 407 kts | 72° |
| 2026-05-05 11:14 | 40.77390 | 13.78303 | 19394 ft | 392 kts | 60° |
| 2026-05-05 11:14 | 40.78769 | 13.81338 | 19276 ft | 379 kts | 55° |
| 2026-05-05 11:14 | 40.80146 | 13.84242 | 19159 ft | 368 kts | 55° |
| 2026-05-05 11:15 | 40.81484 | 13.87065 | 19041 ft | 357 kts | 55° |
| 2026-05-05 11:15 | 40.82783 | 13.89806 | 18924 ft | 347 kts | 55° |
| 2026-05-05 11:15 | 40.84043 | 13.92464 | 18699 ft | 334 kts | 55° |
| 2026-05-05 11:15 | 40.85257 | 13.95046 | 18321 ft | 329 kts | 56° |
| 2026-05-05 11:16 | 40.86440 | 13.97619 | 18029 ft | 326 kts | 56° |
| 2026-05-05 11:16 | 40.87600 | 14.00175 | 17722 ft | 323 kts | 57° |
| 2026-05-05 11:16 | 40.88747 | 14.02718 | 17402 ft | 321 kts | 57° |
| 2026-05-05 11:16 | 40.89887 | 14.05247 | 17090 ft | 319 kts | 57° |
| 2026-05-05 11:17 | 40.91019 | 14.07758 | 16799 ft | 317 kts | 57° |
| 2026-05-05 11:17 | 40.92148 | 14.10262 | 16501 ft | 316 kts | 57° |
| 2026-05-05 11:17 | 40.93272 | 14.12751 | 16202 ft | 314 kts | 57° |
| 2026-05-05 11:17 | 40.94392 | 14.15223 | 15913 ft | 313 kts | 57° |
| 2026-05-05 11:18 | 40.95509 | 14.17686 | 15629 ft | 311 kts | 57° |
| 2026-05-05 11:18 | 40.96617 | 14.20136 | 15342 ft | 310 kts | 57° |
| 2026-05-05 11:18 | 40.97719 | 14.22578 | 15065 ft | 308 kts | 57° |
| 2026-05-05 11:18 | 40.98815 | 14.25007 | 14795 ft | 306 kts | 57° |
| 2026-05-05 11:19 | 40.99905 | 14.27423 | 14519 ft | 305 kts | 58° |
| 2026-05-05 11:19 | 41.00987 | 14.29826 | 14256 ft | 303 kts | 58° |
| 2026-05-05 11:19 | 41.02067 | 14.32222 | 13996 ft | 302 kts | 58° |
| 2026-05-05 11:19 | 41.03141 | 14.34602 | 13710 ft | 300 kts | 58° |
| 2026-05-05 11:20 | 41.04210 | 14.36973 | 13406 ft | 299 kts | 58° |
| 2026-05-05 11:20 | 41.05274 | 14.39332 | 13112 ft | 297 kts | 58° |
| 2026-05-05 11:20 | 41.06331 | 14.41677 | 12808 ft | 296 kts | 58° |
| 2026-05-05 11:20 | 41.07382 | 14.44016 | 12524 ft | 294 kts | 58° |
| 2026-05-05 11:21 | 41.08447 | 14.46333 | 12198 ft | 294 kts | 56° |
| 2026-05-05 11:21 | 41.09532 | 14.48622 | 11898 ft | 293 kts | 56° |
| 2026-05-05 11:21 | 41.10609 | 14.50869 | 11601 ft | 291 kts | 56° |
| 2026-05-05 11:21 | 41.11688 | 14.53126 | 11265 ft | 288 kts | 56° |
| 2026-05-05 11:22 | 41.12760 | 14.55374 | 10781 ft | 289 kts | 56° |
| 2026-05-05 11:22 | 41.13830 | 14.57625 | 10463 ft | 287 kts | 56° |
| 2026-05-05 11:22 | 41.14889 | 14.59858 | 10133 ft | 283 kts | 56° |
| 2026-05-05 11:22 | 41.15920 | 14.62061 | 9824 ft | 279 kts | 57° |
| 2026-05-05 11:23 | 41.16935 | 14.64253 | 9636 ft | 279 kts | 57° |
| 2026-05-05 11:23 | 41.17605 | 14.65705 | 9552 ft | 279 kts | 57° |
| 2026-05-05 11:23 | 41.18614 | 14.67891 | 9380 ft | 277 kts | 56° |
| 2026-05-05 11:23 | 41.19619 | 14.70071 | 9215 ft | 276 kts | 57° |
| 2026-05-05 11:24 | 41.20304 | 14.72434 | 9051 ft | 274 kts | 86° |
| 2026-05-05 11:24 | 41.20002 | 14.74865 | 8796 ft | 264 kts | 120° |
| 2026-05-05 11:24 | 41.18861 | 14.76643 | 8603 ft | 247 kts | 151° |
| 2026-05-05 11:24 | 41.17433 | 14.77826 | 8447 ft | 237 kts | 154° |
| 2026-05-05 11:25 | 41.16047 | 14.78955 | 8294 ft | 231 kts | 154° |
| 2026-05-05 11:25 | 41.14613 | 14.79747 | 8153 ft | 218 kts | 179° |
| 2026-05-05 11:25 | 41.13155 | 14.79595 | 8026 ft | 207 kts | 205° |
| 2026-05-05 11:25 | 41.11958 | 14.78656 | 7913 ft | 198 kts | 229° |
| 2026-05-05 11:26 | 41.11160 | 14.77202 | 7800 ft | 195 kts | 242° |
| 2026-05-05 11:26 | 41.10451 | 14.75672 | 7679 ft | 194 kts | 241° |
| 2026-05-05 11:26 | 41.09756 | 14.74192 | 7595 ft | 180 kts | 241° |
| 2026-05-05 11:26 | 41.09127 | 14.72859 | 7467 ft | 161 kts | 241° |
| 2026-05-05 11:27 | 41.08552 | 14.71641 | 7375 ft | 152 kts | 242° |
| 2026-05-05 11:27 | 41.07993 | 14.70471 | 7300 ft | 149 kts | 242° |
| 2026-05-05 11:27 | 41.07438 | 14.69296 | 7208 ft | 150 kts | 242° |
| 2026-05-05 11:27 | 41.06900 | 14.68149 | 7121 ft | 147 kts | 242° |
| 2026-05-05 11:28 | 41.06354 | 14.66980 | 7068 ft | 146 kts | 242° |
| 2026-05-05 11:28 | 41.05815 | 14.65822 | 6964 ft | 148 kts | 242° |
| 2026-05-05 11:28 | 41.05283 | 14.64681 | 6793 ft | 147 kts | 242° |
| 2026-05-05 11:28 | 41.04745 | 14.63526 | 6596 ft | 147 kts | 242° |
| 2026-05-05 11:29 | 41.04210 | 14.62379 | 6386 ft | 146 kts | 242° |
| 2026-05-05 11:29 | 41.03678 | 14.61238 | 6171 ft | 145 kts | 241° |
| 2026-05-05 11:29 | 41.03148 | 14.60102 | 5954 ft | 145 kts | 241° |
| 2026-05-05 11:29 | 41.02620 | 14.58970 | 5739 ft | 144 kts | 241° |
| 2026-05-05 11:30 | 41.02093 | 14.57842 | 5526 ft | 144 kts | 240° |
| 2026-05-05 11:30 | 41.01567 | 14.56715 | 5326 ft | 144 kts | 240° |
| 2026-05-05 11:30 | 41.01040 | 14.55588 | 5120 ft | 144 kts | 239° |
| 2026-05-05 11:30 | 41.00515 | 14.54463 | 4899 ft | 143 kts | 239° |
| 2026-05-05 11:31 | 40.99994 | 14.53348 | 4673 ft | 142 kts | 239° |
| 2026-05-05 11:31 | 40.99476 | 14.52241 | 4477 ft | 142 kts | 239° |
| 2026-05-05 11:31 | 40.98959 | 14.51136 | 4267 ft | 141 kts | 238° |
| 2026-05-05 11:31 | 40.98442 | 14.50030 | 4057 ft | 142 kts | 238° |
| 2026-05-05 11:32 | 40.97926 | 14.48929 | 3845 ft | 140 kts | 237° |
| 2026-05-05 11:32 | 40.97415 | 14.47838 | 3640 ft | 139 kts | 237° |
| 2026-05-05 11:32 | 40.96907 | 14.46752 | 3440 ft | 139 kts | 237° |
| 2026-05-05 11:32 | 40.96400 | 14.45670 | 3266 ft | 137 kts | 237° |
| 2026-05-05 11:33 | 40.95896 | 14.44595 | 3033 ft | 138 kts | 237° |
| 2026-05-05 11:33 | 40.95390 | 14.43516 | 2820 ft | 138 kts | 238° |
| 2026-05-05 11:33 | 40.94886 | 14.42441 | 2612 ft | 137 kts | 238° |
| 2026-05-05 11:33 | 40.94386 | 14.41377 | 2421 ft | 136 kts | 238° |
| 2026-05-05 11:34 | 40.93893 | 14.40327 | 2218 ft | 135 kts | 237° |
| 2026-05-05 11:34 | 40.93395 | 14.39265 | 2020 ft | 138 kts | 238° |
| 2026-05-05 11:34 | 40.92880 | 14.38171 | 1806 ft | 139 kts | 239° |
| 2026-05-05 11:34 | 40.92376 | 14.37098 | 1597 ft | 140 kts | 239° |
| 2026-05-05 11:35 | 40.91861 | 14.36002 | 1387 ft | 141 kts | 239° |
| 2026-05-05 11:35 | 40.91339 | 14.34893 | 1169 ft | 143 kts | 239° |
| 2026-05-05 11:35 | 40.90809 | 14.33765 | 956 ft | 145 kts | 238° |
| 2026-05-05 11:35 | 40.90277 | 14.32635 | 738 ft | 145 kts | 238° |
| 2026-05-05 11:36 | 40.89738 | 14.31491 | 522 ft | 148 kts | 237° |
| 2026-05-05 11:36 | 40.89190 | 14.30336 | 344 ft | 148 kts | 239° |
| 2026-05-05 11:36 | 40.88675 | 14.29233 | 266 ft | 128 kts | 237° |
| 2026-05-05 11:36 | 40.88368 | 14.28582 | 279 ft | 44 kts | 237° |
| 2026-05-05 11:37 | 40.88229 | 14.28428 | 283 ft | 16 kts | 211° |
| 2026-05-05 11:37 | 40.88178 | 14.28389 | 288 ft | 6 kts | 210° |
| 2026-05-05 11:37 | 40.88153 | 14.28369 | 285 ft | 3 kts | 210° |
| 2026-05-05 11:37 | 40.88144 | 14.28363 | 286 ft | 0 kts | 210° |
| 2026-05-05 11:38 | 40.88098 | 14.28329 | 287 ft | 17 kts | 207° |
| 2026-05-05 11:38 | 40.88083 | 14.28320 | 287 ft | 0 kts | 204° |
| 2026-05-05 11:38 | 40.88081 | 14.28317 | 292 ft | 4 kts | 211° |
| 2026-05-05 11:38 | 40.88067 | 14.28248 | 292 ft | 8 kts | 253° |
| 2026-05-05 11:39 | 40.88032 | 14.28165 | 293 ft | 9 kts | 240° |
| 2026-05-05 11:39 | 40.87993 | 14.28125 | 292 ft | 6 kts | 202° |
| 2026-05-05 11:39 | 40.87963 | 14.28109 | 293 ft | 3 kts | 203° |
| 2026-05-05 11:39 | 40.87929 | 14.28071 | 296 ft | 13 kts | 225° |
| 2026-05-05 11:40 | 40.87881 | 14.28044 | 298 ft | 3 kts | 143° |
| 2026-05-05 11:40 | 40.87865 | 14.28061 | 298 ft | 2 kts | 141° |
| 2026-05-05 11:40 | 40.87854 | 14.28073 | 297 ft | 3 kts | 141° |
| 2026-05-05 11:40 | 40.87836 | 14.28091 | 297 ft | 0 kts | 141° |